createdAt,value
2018-05-26T00:02:13.236Z,5.93
2018-05-26T00:08:08.191Z,6.39
2018-05-26T00:14:03.206Z,7.1
2018-05-26T00:19:58.200Z,7.73
2018-05-26T00:25:53.180Z,7.6
2018-05-26T00:31:48.160Z,8.34
2018-05-26T00:37:43.162Z,9.59
2018-05-26T00:43:38.187Z,10.18
2018-05-26T00:49:33.197Z,10.01
2018-05-26T00:55:28.172Z,9.65
2018-05-26T01:01:23.269Z,10.4
2018-05-26T01:07:18.169Z,8.23
2018-05-26T01:13:13.192Z,8.22
2018-05-26T01:19:08.211Z,8.59
2018-05-26T01:25:03.250Z,8.56
2018-05-26T01:30:58.167Z,8.77
2018-05-26T01:36:53.168Z,8.67
2018-05-26T01:42:48.196Z,9.34
2018-05-26T01:48:43.274Z,11.12
2018-05-26T01:54:38.191Z,9.85
2018-05-26T02:00:33.247Z,10.11
2018-05-26T02:06:28.227Z,9.76
2018-05-26T02:12:23.235Z,10.04
2018-05-26T02:18:18.195Z,10.27
2018-05-26T02:24:13.239Z,10.22
2018-05-26T02:30:08.339Z,9.49
2018-05-26T02:36:03.190Z,8.89
2018-05-26T02:41:58.222Z,9.33
2018-05-26T02:47:53.259Z,9.32
2018-05-26T02:53:48.218Z,8.47
2018-05-26T02:59:43.219Z,8.7
2018-05-26T03:05:38.233Z,9.02
2018-05-26T03:11:33.320Z,8.73
2018-05-26T03:17:28.215Z,8.9
2018-05-26T03:23:23.217Z,9.28
2018-05-26T03:29:18.224Z,9.21
2018-05-26T03:35:13.280Z,8.5
2018-05-26T03:41:08.291Z,9.51
2018-05-26T03:47:03.225Z,9.1
2018-05-26T03:52:58.225Z,9.79
2018-05-26T03:58:53.244Z,10.19
2018-05-26T04:04:48.248Z,9.99
2018-05-26T04:10:43.305Z,9.24
2018-05-26T04:16:38.284Z,9.05
2018-05-26T04:22:33.237Z,8.97
2018-05-26T04:28:28.442Z,8.46
2018-05-26T04:34:23.344Z,9.09
2018-05-26T04:40:18.299Z,10.13
2018-05-26T04:46:13.254Z,9.31
2018-05-26T04:52:08.298Z,9.25
2018-05-26T04:58:03.256Z,9.97
2018-05-26T05:03:58.287Z,9.3
2018-05-26T05:09:53.305Z,9.55
2018-05-26T05:15:48.296Z,10.27
2018-05-26T05:21:43.246Z,10.79
2018-05-26T05:27:38.287Z,11.58
2018-05-26T05:33:33.268Z,11.42
2018-05-26T05:39:28.292Z,12.95
2018-05-26T05:45:23.287Z,12.04
2018-05-26T05:51:18.268Z,12.01
2018-05-26T05:57:13.297Z,13.33
2018-05-26T06:03:08.319Z,14.13
2018-05-26T06:09:03.339Z,12.85
2018-05-26T06:14:58.344Z,14.1
2018-05-26T06:20:54.110Z,14.55
2018-05-26T06:26:48.449Z,13.37
2018-05-26T06:32:43.277Z,13.39
2018-05-26T06:38:38.283Z,13.74
2018-05-26T06:44:33.361Z,13.04
2018-05-26T06:50:28.368Z,16.07
2018-05-26T06:56:23.365Z,17.28
2018-05-26T07:02:18.409Z,15.61
2018-05-26T07:08:14.146Z,18
2018-05-26T07:14:08.399Z,20.07
2018-05-26T07:20:03.461Z,16.46
2018-05-26T07:25:58.381Z,16.54
2018-05-26T07:31:53.441Z,15.38
2018-05-26T07:37:48.391Z,14.6
2018-05-26T07:43:43.385Z,13.96
2018-05-26T07:49:38.367Z,13.03
2018-05-26T07:55:33.400Z,13.88
2018-05-26T08:01:28.492Z,12.29
2018-05-26T08:07:24.147Z,12.28
2018-05-26T08:13:18.403Z,13.3
2018-05-26T08:19:13.449Z,12.34
2018-05-26T08:25:08.357Z,14.03
2018-05-26T08:31:03.439Z,14.81
2018-05-26T08:36:58.560Z,15.03
2018-05-26T08:42:53.351Z,16.46
2018-05-26T08:48:48.347Z,20.26
2018-05-26T08:54:43.369Z,19.6
2018-05-26T09:00:38.394Z,15.34
2018-05-26T09:06:33.456Z,13.93
2018-05-26T09:12:28.387Z,13.86
2018-05-26T09:18:23.357Z,13.29
2018-05-26T09:24:18.536Z,13.51
2018-05-26T09:30:13.634Z,13.65
2018-05-26T09:36:08.464Z,13.38
2018-05-26T09:42:03.511Z,13.62
2018-05-26T09:47:58.486Z,12.62
2018-05-26T09:53:53.417Z,13.73
2018-05-26T09:59:48.469Z,12.15
2018-05-26T10:05:43.525Z,11.52
2018-05-26T10:11:38.368Z,13.31
2018-05-26T10:17:33.478Z,10.21
2018-05-26T10:23:28.427Z,8.76
2018-05-26T10:29:23.406Z,8.45
2018-05-26T10:35:18.357Z,9.62
2018-05-26T10:41:13.480Z,11.51
2018-05-26T10:47:08.458Z,6.67
2018-05-26T10:53:04.437Z,6.9
2018-05-26T10:58:58.388Z,5.43
2018-05-26T11:04:53.373Z,5.15
2018-05-26T11:10:48.412Z,5.63
2018-05-26T11:16:43.385Z,7.14
2018-05-26T11:22:38.426Z,5.38
2018-05-26T11:28:33.451Z,5.43
2018-05-26T11:34:28.395Z,4.38
2018-05-26T11:40:23.400Z,5.53
2018-05-26T11:46:18.420Z,3.99
2018-05-26T11:52:13.391Z,4.69
2018-05-26T11:58:08.438Z,4.23
2018-05-26T12:04:03.418Z,3.67
2018-05-26T12:09:58.408Z,4.01
2018-05-26T12:15:53.425Z,3.89
2018-05-26T12:21:48.424Z,4.1
2018-05-26T12:27:43.397Z,3.98
2018-05-26T12:33:38.406Z,4.09
2018-05-26T12:39:33.396Z,5.63
2018-05-26T12:51:23.450Z,4.5
2018-05-26T12:57:18.423Z,9.41
2018-05-26T13:03:13.454Z,5.15
2018-05-26T13:20:58.463Z,3.93
2018-05-26T13:20:58.490Z,4.12
2018-05-26T13:26:53.426Z,4.11
2018-05-26T13:32:48.971Z,3.37
2018-05-26T13:44:38.448Z,3.73
2018-05-26T13:44:38.521Z,12.35
2018-05-26T13:50:33.451Z,4.08
2018-05-26T13:56:28.435Z,3.49
2018-05-26T14:02:23.467Z,3.73
2018-05-26T14:08:18.471Z,3.5
2018-05-26T15:25:13.561Z,3.25
2018-05-26T15:25:13.607Z,4.19
2018-05-26T15:25:13.627Z,4.19
2018-05-26T15:25:13.653Z,4.19
2018-05-26T15:25:13.681Z,4.19
2018-05-26T15:25:13.713Z,4.19
2018-05-26T15:25:13.750Z,4.19
2018-05-26T15:25:13.774Z,4.19
2018-05-26T15:25:13.812Z,4.19
2018-05-26T15:25:13.819Z,4.19
2018-05-26T15:25:13.862Z,4.19
2018-05-26T15:25:13.904Z,4.19
2018-05-26T15:54:48.496Z,3.6
2018-05-26T15:54:48.560Z,3.74
2018-05-26T15:54:48.583Z,3.74
2018-05-26T15:54:48.623Z,3.74
2018-05-26T15:54:48.639Z,3.74
2018-05-26T16:00:43.502Z,3.46
2018-05-26T16:06:38.499Z,4.01
2018-05-26T16:12:33.510Z,3.99
2018-05-26T16:18:28.562Z,3.6
2018-05-26T16:24:23.513Z,3.99
2018-05-26T16:30:18.492Z,4.26
2018-05-26T16:36:13.511Z,3.84
2018-05-26T16:42:08.514Z,4.08
2018-05-26T16:48:03.596Z,4.23
2018-05-26T16:53:58.518Z,4.31
2018-05-26T16:59:53.519Z,4.17
2018-05-26T17:11:43.508Z,4.01
2018-05-26T17:11:43.564Z,4.16
2018-05-26T17:17:38.540Z,4.61
2018-05-26T17:23:33.538Z,4.88
2018-05-26T17:29:28.552Z,4.54
2018-05-26T17:35:23.524Z,4.22
2018-05-26T17:41:18.534Z,4.79
2018-05-26T17:47:13.509Z,4.77
2018-05-26T17:53:08.527Z,4.47
2018-05-26T17:59:03.537Z,4.92
2018-05-26T18:04:58.563Z,4.77
2018-05-26T18:10:53.590Z,4.5
2018-05-26T18:16:48.572Z,4.19
2018-05-26T18:22:43.552Z,4.3
2018-05-26T18:28:38.575Z,5.25
2018-05-26T18:34:33.616Z,5.05
2018-05-26T18:40:28.590Z,4.8
2018-05-26T18:46:23.556Z,5.45
2018-05-26T18:52:18.568Z,5.12
2018-05-26T18:58:13.566Z,5.25
2018-05-26T19:04:08.557Z,5.53
2018-05-26T19:10:03.562Z,5.12
2018-05-26T19:15:58.760Z,5.25
2018-05-26T19:21:53.592Z,5.39
2018-05-26T19:27:48.634Z,5.31
2018-05-26T19:33:43.628Z,4.83
2018-05-26T19:39:38.603Z,4.64
2018-05-26T19:45:33.555Z,4.61
2018-05-26T19:51:28.574Z,4.8
2018-05-26T19:57:23.596Z,5
2018-05-26T20:03:18.568Z,4.43
2018-05-26T20:09:13.673Z,4.48
2018-05-26T20:15:08.610Z,4.78
2018-05-26T20:21:03.617Z,4.56
2018-05-26T20:26:58.620Z,4.93
2018-05-26T20:32:53.640Z,4.9
2018-05-26T20:38:48.620Z,4.61
2018-05-26T20:44:43.629Z,4.45
2018-05-26T20:50:38.666Z,4.57
2018-05-26T20:56:33.604Z,4.9
2018-05-26T21:02:28.619Z,4.89
2018-05-26T21:08:23.598Z,4.79
2018-05-26T21:14:18.651Z,4.78
2018-05-26T21:20:13.627Z,5.57
2018-05-26T21:26:08.613Z,5.35
2018-05-26T21:32:03.640Z,4.98
2018-05-26T21:37:58.631Z,4.96
2018-05-26T21:43:53.629Z,5.01
2018-05-26T21:49:48.665Z,5.01
2018-05-26T21:55:43.671Z,5.13
2018-05-26T22:01:38.681Z,4.72
2018-05-26T22:07:33.666Z,4.68
2018-05-26T22:13:28.677Z,5.01
2018-05-26T22:19:23.621Z,5.05
2018-05-26T22:25:18.668Z,5.03
2018-05-26T22:31:13.718Z,5.44
2018-05-26T22:37:08.686Z,5.65
2018-05-26T22:43:03.663Z,6.49
2018-05-26T22:48:58.666Z,7.16
2018-05-26T22:54:53.657Z,7.81
2018-05-26T23:00:48.732Z,7.6
2018-05-26T23:06:43.667Z,7.52
2018-05-26T23:12:38.688Z,6.71
2018-05-26T23:18:33.660Z,7.01
2018-05-26T23:24:28.656Z,6.82
2018-05-26T23:30:23.682Z,6.8
2018-05-26T23:36:18.689Z,5.86
2018-05-26T23:42:13.689Z,6.97
2018-05-26T23:48:08.713Z,6.31
2018-05-26T23:54:03.695Z,6.07
2018-05-26T23:59:58.710Z,5.57
